Time;durP1;ratioP1;P1;durP2;ratioP2;P2;SDS_P1;SDS_P2;PMS_P1;PMS_P2;Temp;Humidity;BMP_temperature;BMP_pressure;BME280_temperature;BME280_humidity;BME280_pressure;Samples;Min_cycle;Max_cycle;Signal;HPM_P1;HPM_P2
2022/11/01 00:01:57;;;;;;;;;;;14.00;99.90;;;;;;5033420;28;19971;-68
2022/11/01 00:04:25;;;;;;;;;;;14.00;99.90;;;;;;5042385;28;20398;-68
2022/11/01 00:06:52;;;;;;;;;;;14.10;99.90;;;;;;5038094;28;20564;-72
2022/11/01 00:09:22;;;;;;;;;;;14.10;99.90;;;;;;5036260;28;19982;-70
2022/11/01 00:11:49;;;;;;;;;;;14.20;99.90;;;;;;5040623;28;20018;-71
2022/11/01 00:14:18;;;;;;;;;;;14.10;99.90;;;;;;5041260;28;20014;-71
2022/11/01 00:16:46;;;;;;;;;;;14.10;99.90;;;;;;5040046;28;19975;-71
2022/11/01 00:19:14;;;;;;;;;;;14.10;99.90;;;;;;5037177;28;20405;-70
2022/11/01 00:21:42;;;;;;;;;;;14.10;99.90;;;;;;5041295;28;19968;-70
2022/11/01 00:24:10;;;;;;;;;;;14.20;99.90;;;;;;5041724;28;19964;-69
2022/11/01 00:26:39;;;;;;;;;;;14.20;99.90;;;;;;5035318;28;19979;-70
2022/11/01 00:29:07;;;;;;;;;;;14.20;99.90;;;;;;5034848;28;20523;-70
2022/11/01 00:31:34;;;;;;;;;;;14.20;99.90;;;;;;5039424;28;19983;-69
2022/11/01 00:34:04;;;;;;;;;;;14.20;99.90;;;;;;5034084;28;20049;-70
2022/11/01 00:36:32;;;;;;;;;;;14.20;99.90;;;;;;5040421;28;19994;-71
2022/11/01 00:39:00;;;;;;;;;;;14.20;99.90;;;;;;5035816;28;19971;-71
2022/11/01 00:41:28;;;;;;;;;;;14.30;99.90;;;;;;5039711;28;20566;-71
2022/11/01 00:43:57;;;;;;;;;;;14.40;99.90;;;;;;5036811;28;19986;-71
2022/11/01 00:46:25;;;;;;;;;;;14.30;99.90;;;;;;5041141;28;20378;-71
2022/11/01 00:48:52;;;;;;;;;;;14.30;99.90;;;;;;5045602;28;19968;-71
2022/11/01 00:51:22;;;;;;;;;;;14.40;99.90;;;;;;5050855;28;22352;-71
2022/11/01 00:53:50;;;;;;;;;;;14.30;99.90;;;;;;5038188;28;19964;-71
2022/11/01 00:56:21;;;;;;;;;;;14.40;99.90;;;;;;5033115;28;20334;-71
2022/11/01 00:58:48;;;;;;;;;;;14.30;99.90;;;;;;5033164;28;20353;-70
2022/11/01 01:01:32;;;;;;;;;;;14.30;99.90;;;;;;5049044;28;20014;-71
2022/11/01 01:03:59;;;;;;;;;;;14.50;99.90;;;;;;5036930;28;20012;-71
2022/11/01 01:06:27;;;;;;;;;;;14.60;99.90;;;;;;5049623;28;20393;-71
2022/11/01 01:08:57;;;;;;;;;;;14.60;99.90;;;;;;5052456;28;20315;-73
2022/11/01 01:11:25;;;;;;;;;;;14.60;99.90;;;;;;5051685;28;20396;-72
2022/11/01 01:13:53;;;;;;;;;;;14.70;99.90;;;;;;5051921;28;19988;-73
2022/11/01 01:16:20;;;;;;;;;;;14.60;99.90;;;;;;5051252;28;19966;-73
2022/11/01 01:18:49;;;;;;;;;;;14.60;99.90;;;;;;5051169;28;19971;-72
2022/11/01 01:21:17;;;;;;;;;;;14.60;99.90;;;;;;5049440;28;20441;-72
2022/11/01 01:23:47;;;;;;;;;;;14.60;99.90;;;;;;5052467;28;20066;-72
2022/11/01 01:26:15;;;;;;;;;;;14.60;99.90;;;;;;5044797;28;19974;-72
2022/11/01 01:28:42;;;;;;;;;;;14.50;99.90;;;;;;5052558;28;20325;-73
2022/11/01 01:31:12;;;;;;;;;;;14.50;99.90;;;;;;5065525;28;20436;-72
2022/11/01 01:33:39;;;;;;;;;;;14.50;99.90;;;;;;5032700;28;20346;-72
2022/11/01 01:36:09;;;;;;;;;;;14.50;99.90;;;;;;5031551;28;20464;-72
2022/11/01 01:38:36;;;;;;;;;;;14.50;99.90;;;;;;5042503;28;20075;-72
2022/11/01 01:43:50;;;;;;;;;;;14.50;99.90;;;;;;5047786;28;20346;-70
2022/11/01 01:46:18;;;;;;;;;;;14.40;99.90;;;;;;5051826;28;19967;-72
2022/11/01 01:48:47;;;;;;;;;;;14.40;99.90;;;;;;5052245;28;19995;-73
2022/11/01 01:51:17;;;;;;;;;;;14.40;99.90;;;;;;5051906;28;20062;-71
2022/11/01 01:53:47;;;;;;;;;;;14.50;99.90;;;;;;5051593;28;19972;-72
2022/11/01 01:56:16;;;;;;;;;;;14.50;99.90;;;;;;5052012;28;19975;-72
2022/11/01 01:58:45;;;;;;;;;;;14.50;99.90;;;;;;5052150;28;19974;-72
2022/11/01 02:01:13;;;;;;;;;;;14.50;99.90;;;;;;5059969;28;19968;-72
2022/11/01 02:03:42;;;;;;;;;;;14.50;99.90;;;;;;5052271;28;20008;-73
2022/11/01 02:06:11;;;;;;;;;;;14.60;99.90;;;;;;5052181;28;19971;-72
2022/11/01 02:08:41;;;;;;;;;;;14.60;99.90;;;;;;5052207;28;20594;-72
2022/11/01 02:11:10;;;;;;;;;;;14.60;99.90;;;;;;5051527;28;20423;-71
2022/11/01 02:13:38;;;;;;;;;;;14.60;99.90;;;;;;5051727;28;19972;-72
2022/11/01 02:16:15;;;;;;;;;;;14.70;99.90;;;;;;5051628;28;19968;-72
2022/11/01 02:18:46;;;;;;;;;;;14.70;99.90;;;;;;5052000;28;19972;-72
2022/11/01 02:21:31;;;;;;;;;;;14.60;99.90;;;;;;5032635;28;20348;-72
2022/11/01 02:24:12;;;;;;;;;;;14.50;99.90;;;;;;5042794;28;19972;-72
2022/11/01 02:26:57;;;;;;;;;;;14.50;99.90;;;;;;5050864;28;20404;-71
2022/11/01 02:29:39;;;;;;;;;;;14.50;99.90;;;;;;5053361;28;19994;-72
2022/11/01 02:32:13;;;;;;;;;;;14.40;99.90;;;;;;5063723;28;19967;-73
2022/11/01 02:34:43;;;;;;;;;;;14.40;99.90;;;;;;5051718;28;19975;-72
2022/11/01 02:37:17;;;;;;;;;;;14.40;99.90;;;;;;5051526;28;20449;-72
2022/11/01 02:39:48;;;;;;;;;;;14.50;99.90;;;;;;5051480;28;19968;-72
2022/11/01 02:42:20;;;;;;;;;;;14.50;99.90;;;;;;5033768;28;19975;-73
2022/11/01 02:44:51;;;;;;;;;;;14.40;99.90;;;;;;5031823;28;20430;-72
2022/11/01 02:47:20;;;;;;;;;;;14.40;99.90;;;;;;5047431;28;19967;-72
2022/11/01 02:49:50;;;;;;;;;;;14.50;99.90;;;;;;5051428;28;20022;-72
2022/11/01 02:52:19;;;;;;;;;;;14.50;99.90;;;;;;5051792;28;19976;-70
2022/11/01 02:54:49;;;;;;;;;;;14.50;99.90;;;;;;5051527;28;20421;-72
2022/11/01 02:57:25;;;;;;;;;;;14.50;99.90;;;;;;5051217;28;19971;-72
2022/11/01 03:00:00;;;;;;;;;;;14.60;99.90;;;;;;5056799;28;19963;-73
2022/11/01 03:02:39;;;;;;;;;;;14.60;99.90;;;;;;5060931;28;19968;-72
2022/11/01 03:05:09;;;;;;;;;;;14.60;99.90;;;;;;5032286;28;20387;-73
2022/11/01 03:07:37;;;;;;;;;;;14.60;99.90;;;;;;5034876;28;19981;-72
2022/11/01 03:10:05;;;;;;;;;;;14.50;99.90;;;;;;5035126;28;19968;-72
2022/11/01 03:12:35;;;;;;;;;;;14.40;99.90;;;;;;5035249;28;20368;-72
2022/11/01 03:15:04;;;;;;;;;;;14.50;99.90;;;;;;5035142;28;19974;-72
2022/11/01 03:17:36;;;;;;;;;;;14.60;99.90;;;;;;5034716;28;19975;-72
2022/11/01 03:20:06;;;;;;;;;;;14.60;99.90;;;;;;5044402;28;19967;-73
2022/11/01 03:22:37;;;;;;;;;;;14.60;99.90;;;;;;5054854;28;19998;-72
2022/11/01 03:25:37;;;;;;;;;;;14.60;99.90;;;;;;5055110;28;19966;-73
2022/11/01 03:27:57;;;;;;;;;;;14.60;99.90;;;;;;5054521;28;19997;-73
2022/11/01 03:30:25;;;;;;;;;;;14.60;99.90;;;;;;5062546;28;19966;-73
2022/11/01 03:32:56;;;;;;;;;;;14.60;99.90;;;;;;5068561;28;19973;-73
2022/11/01 03:35:25;;;;;;;;;;;14.60;99.90;;;;;;5074879;28;19978;-73
2022/11/01 03:37:54;;;;;;;;;;;14.60;99.90;;;;;;5061460;28;19975;-72
2022/11/01 03:40:23;;;;;;;;;;;14.60;99.90;;;;;;5054426;28;19991;-72
2022/11/01 03:42:52;;;;;;;;;;;14.60;99.90;;;;;;5053571;28;20001;-73
2022/11/01 03:45:22;;;;;;;;;;;14.60;99.90;;;;;;5046436;28;20322;-74
2022/11/01 03:47:56;;;;;;;;;;;14.50;99.90;;;;;;5053499;28;20029;-73
2022/11/01 03:50:25;;;;;;;;;;;14.30;99.90;;;;;;5053939;28;20506;-73
2022/11/01 03:52:53;;;;;;;;;;;14.20;99.90;;;;;;5053538;28;20051;-72
2022/11/01 03:55:21;;;;;;;;;;;14.20;99.90;;;;;;5053498;28;19968;-73
2022/11/01 03:57:49;;;;;;;;;;;14.30;99.90;;;;;;5053223;28;19963;-73
2022/11/01 04:00:19;;;;;;;;;;;14.20;99.90;;;;;;5052833;28;20066;-73
2022/11/01 04:02:47;;;;;;;;;;;14.20;99.90;;;;;;5052713;28;19968;-73
2022/11/01 04:05:17;;;;;;;;;;;14.30;99.90;;;;;;5053295;28;20448;-73
2022/11/01 04:07:45;;;;;;;;;;;14.30;99.90;;;;;;5053601;28;20463;-72
2022/11/01 04:10:12;;;;;;;;;;;14.40;99.90;;;;;;5053007;28;19968;-73
2022/11/01 04:12:40;;;;;;;;;;;14.30;99.90;;;;;;5052327;28;19962;-73
2022/11/01 04:20:48;;;;;;;;;;;14.10;99.90;;;;;;5034144;28;20074;-72
2022/11/01 04:23:16;;;;;;;;;;;14.10;99.90;;;;;;5051681;28;20161;-74
2022/11/01 04:25:44;;;;;;;;;;;14.10;99.90;;;;;;5053093;28;19966;-73
2022/11/01 04:28:12;;;;;;;;;;;14.10;99.90;;;;;;5052645;28;19968;-75
2022/11/01 04:30:40;;;;;;;;;;;14.20;99.90;;;;;;5051771;28;20045;-73
2022/11/01 04:33:08;;;;;;;;;;;14.20;99.90;;;;;;5052991;28;20364;-73
2022/11/01 04:35:36;;;;;;;;;;;14.20;99.90;;;;;;5053065;28;19964;-72
2022/11/01 04:38:05;;;;;;;;;;;14.20;99.90;;;;;;5052764;28;20034;-73
2022/11/01 04:40:33;;;;;;;;;;;14.20;99.90;;;;;;5052453;28;19964;-73
2022/11/01 04:43:01;;;;;;;;;;;14.30;99.90;;;;;;5052549;28;19972;-72
2022/11/01 04:45:29;;;;;;;;;;;14.30;99.90;;;;;;5051849;28;20449;-73
2022/11/01 04:48:01;;;;;;;;;;;14.40;99.90;;;;;;5052563;28;19964;-73
2022/11/01 04:50:29;;;;;;;;;;;14.30;99.90;;;;;;5052997;28;20441;-73
2022/11/01 04:52:57;;;;;;;;;;;14.20;99.90;;;;;;5053111;28;19995;-74
2022/11/01 04:55:27;;;;;;;;;;;14.30;99.90;;;;;;5052995;28;19972;-73
2022/11/01 04:57:55;;;;;;;;;;;14.40;99.90;;;;;;5052806;28;20459;-74
2022/11/01 05:00:23;;;;;;;;;;;14.30;99.90;;;;;;5053036;28;19983;-74
2022/11/01 05:02:51;;;;;;;;;;;14.30;99.90;;;;;;5058965;28;19995;-74
2022/11/01 05:05:19;;;;;;;;;;;14.30;99.90;;;;;;5052789;28;19975;-73
2022/11/01 05:07:47;;;;;;;;;;;14.40;99.90;;;;;;5052863;28;20057;-73
2022/11/01 05:10:14;;;;;;;;;;;14.50;99.90;;;;;;5052824;28;19968;-74
2022/11/01 05:12:43;;;;;;;;;;;14.40;99.90;;;;;;5052413;28;20341;-74
2022/11/01 05:15:11;;;;;;;;;;;14.40;99.90;;;;;;5052757;28;19975;-73
2022/11/01 05:17:40;;;;;;;;;;;14.30;99.90;;;;;;5052885;28;20002;-73
2022/11/01 05:20:09;;;;;;;;;;;14.30;99.90;;;;;;5052457;28;19973;-73
2022/11/01 05:22:37;;;;;;;;;;;14.10;99.90;;;;;;5051853;28;19967;-73
2022/11/01 05:25:08;;;;;;;;;;;14.00;99.90;;;;;;5052334;28;19978;-73
2022/11/01 05:27:35;;;;;;;;;;;14.00;99.90;;;;;;5052545;28;20347;-73
2022/11/01 05:30:06;;;;;;;;;;;14.10;99.90;;;;;;5058283;28;19966;-72
2022/11/01 05:32:36;;;;;;;;;;;14.00;99.90;;;;;;5063932;28;19974;-73
2022/11/01 05:35:05;;;;;;;;;;;14.10;99.90;;;;;;5072358;28;19968;-73
2022/11/01 05:37:34;;;;;;;;;;;14.10;99.90;;;;;;5053448;28;19975;-72
2022/11/01 05:40:02;;;;;;;;;;;14.10;99.90;;;;;;5052082;28;19968;-72
2022/11/01 05:42:30;;;;;;;;;;;14.20;99.90;;;;;;5052048;28;20421;-72
2022/11/01 05:44:57;;;;;;;;;;;14.20;99.90;;;;;;5052393;28;20376;-74
2022/11/01 05:47:26;;;;;;;;;;;14.30;99.90;;;;;;5093568;22;19967;-63
2022/11/01 05:49:54;;;;;;;;;;;14.30;99.90;;;;;;5103160;28;19966;-63
2022/11/01 05:52:22;;;;;;;;;;;14.30;99.90;;;;;;5112125;28;19973;-63
2022/11/01 05:54:49;;;;;;;;;;;14.30;99.90;;;;;;5091764;28;19975;-63
2022/11/01 05:57:17;;;;;;;;;;;14.20;99.90;;;;;;5084868;28;19970;-63
2022/11/01 05:59:45;;;;;;;;;;;14.20;99.90;;;;;;5076443;28;19975;-63
2022/11/01 06:02:13;;;;;;;;;;;14.50;99.90;;;;;;5083603;28;19967;-64
2022/11/01 06:04:42;;;;;;;;;;;14.50;99.90;;;;;;5092173;28;20325;-63
2022/11/01 06:07:09;;;;;;;;;;;14.40;99.90;;;;;;5092208;28;20023;-63
2022/11/01 06:09:37;;;;;;;;;;;14.30;99.90;;;;;;5089363;28;19967;-62
2022/11/01 06:12:05;;;;;;;;;;;14.40;99.90;;;;;;5060731;28;19969;-64
2022/11/01 06:14:33;;;;;;;;;;;14.50;99.90;;;;;;5069087;28;19972;-63
2022/11/01 06:17:01;;;;;;;;;;;14.50;99.90;;;;;;5069138;28;20071;-63
2022/11/01 06:19:29;;;;;;;;;;;14.40;99.90;;;;;;5059016;28;20391;-63
2022/11/01 06:21:59;;;;;;;;;;;14.40;99.90;;;;;;5060289;28;19970;-63
2022/11/01 06:24:26;;;;;;;;;;;14.40;99.90;;;;;;5067875;28;20458;-63
2022/11/01 06:26:54;;;;;;;;;;;14.40;99.90;;;;;;5057508;28;19978;-63
2022/11/01 06:29:22;;;;;;;;;;;14.30;99.90;;;;;;5048574;28;20102;-63
2022/11/01 06:31:50;;;;;;;;;;;14.20;99.90;;;;;;5056783;28;19999;-63
2022/11/01 06:34:17;;;;;;;;;;;14.30;99.90;;;;;;5057780;28;19969;-63
2022/11/01 06:36:45;;;;;;;;;;;14.30;99.90;;;;;;5055131;28;20435;-63
2022/11/01 06:39:16;;;;;;;;;;;14.30;99.90;;;;;;5059431;28;19976;-63
2022/11/01 06:41:44;;;;;;;;;;;14.30;99.90;;;;;;5063633;28;20037;-63
2022/11/01 06:44:11;;;;;;;;;;;14.20;99.90;;;;;;5062351;28;20538;-63
2022/11/01 06:46:39;;;;;;;;;;;14.30;99.90;;;;;;5058689;28;20108;-63
2022/11/01 06:49:07;;;;;;;;;;;14.30;99.90;;;;;;5062393;28;20606;-63
2022/11/01 06:51:35;;;;;;;;;;;14.30;99.90;;;;;;5063976;28;19994;-63
2022/11/01 06:54:02;;;;;;;;;;;14.30;99.90;;;;;;5063017;28;19976;-64
2022/11/01 06:56:32;;;;;;;;;;;14.30;99.90;;;;;;5054211;28;19966;-63
2022/11/01 06:59:00;;;;;;;;;;;14.30;99.90;;;;;;5058207;28;19971;-63
2022/11/01 07:01:28;;;;;;;;;;;14.30;99.90;;;;;;5063499;28;20074;-63
2022/11/01 07:03:56;;;;;;;;;;;14.30;99.90;;;;;;5061530;28;20028;-63
2022/11/01 07:06:27;;;;;;;;;;;14.50;99.90;;;;;;5062295;28;20179;-63
2022/11/01 07:08:55;;;;;;;;;;;14.40;99.90;;;;;;5059399;28;20433;-63
2022/11/01 07:11:22;;;;;;;;;;;14.40;99.90;;;;;;5062948;28;19966;-63
2022/11/01 07:13:59;;;;;;;;;;;14.50;99.90;;;;;;5061851;28;19974;-63
2022/11/01 07:16:26;;;;;;;;;;;14.60;99.90;;;;;;5060579;28;20428;-63
2022/11/01 07:18:54;;;;;;;;;;;14.60;99.90;;;;;;5062200;28;19972;-63
2022/11/01 07:21:22;;;;;;;;;;;14.60;99.90;;;;;;5060674;28;20336;-63
2022/11/01 07:23:51;;;;;;;;;;;14.60;99.90;;;;;;5051122;28;20433;-63
2022/11/01 07:26:19;;;;;;;;;;;14.60;99.90;;;;;;5061123;28;19990;-64
2022/11/01 07:28:46;;;;;;;;;;;14.60;99.90;;;;;;5061693;28;19964;-64
2022/11/01 07:31:16;;;;;;;;;;;14.60;99.90;;;;;;5061275;28;19976;-64
2022/11/01 07:33:43;;;;;;;;;;;14.80;99.90;;;;;;5051963;28;19972;-63
2022/11/01 07:36:11;;;;;;;;;;;14.80;99.90;;;;;;5061917;28;19970;-63
2022/11/01 07:38:39;;;;;;;;;;;14.80;99.90;;;;;;5054091;28;20007;-64
2022/11/01 07:41:06;;;;;;;;;;;14.80;99.90;;;;;;5062471;28;20504;-64
2022/11/01 07:43:35;;;;;;;;;;;14.90;99.90;;;;;;5063103;28;20445;-64
2022/11/01 07:46:05;;;;;;;;;;;14.80;99.90;;;;;;5062400;28;19972;-63
2022/11/01 07:48:35;;;;;;;;;;;14.90;99.90;;;;;;5056498;28;19971;-63
2022/11/01 07:51:04;;;;;;;;;;;14.80;99.90;;;;;;5054923;28;19978;-64
2022/11/01 07:53:32;;;;;;;;;;;14.80;99.90;;;;;;5060858;28;19972;-63
2022/11/01 07:56:01;;;;;;;;;;;14.80;99.90;;;;;;5061656;28;19971;-64
2022/11/01 07:58:30;;;;;;;;;;;14.90;99.90;;;;;;5051548;28;19972;-63
2022/11/01 08:00:57;;;;;;;;;;;14.90;99.90;;;;;;5061325;28;19970;-63
2022/11/01 08:03:25;;;;;;;;;;;14.80;99.90;;;;;;5062037;28;20058;-63
2022/11/01 08:05:55;;;;;;;;;;;14.90;99.90;;;;;;5060231;28;19963;-63
2022/11/01 08:08:23;;;;;;;;;;;15.00;99.90;;;;;;5057810;28;19970;-63
2022/11/01 08:10:51;;;;;;;;;;;15.10;99.90;;;;;;5058191;28;19971;-63
2022/11/01 08:13:19;;;;;;;;;;;15.10;99.90;;;;;;5061619;28;19971;-64
2022/11/01 08:15:48;;;;;;;;;;;15.20;99.90;;;;;;5056657;28;19963;-63
2022/11/01 08:18:16;;;;;;;;;;;15.30;99.90;;;;;;5053666;28;19972;-63
2022/11/01 08:20:44;;;;;;;;;;;15.40;99.90;;;;;;5062170;28;19971;-63
2022/11/01 08:23:13;;;;;;;;;;;15.40;99.90;;;;;;5060404;28;19982;-63
2022/11/01 08:25:40;;;;;;;;;;;15.40;99.90;;;;;;5053991;28;19972;-63
2022/11/01 08:28:10;;;;;;;;;;;15.40;99.90;;;;;;5057066;28;19971;-64
2022/11/01 08:30:39;;;;;;;;;;;15.40;99.90;;;;;;5058380;28;19967;-63
2022/11/01 08:33:07;;;;;;;;;;;15.40;99.90;;;;;;5058489;28;19976;-63
2022/11/01 08:35:34;;;;;;;;;;;15.40;99.90;;;;;;5060036;28;19972;-63
2022/11/01 08:38:03;;;;;;;;;;;15.50;99.90;;;;;;5057888;28;20376;-63
2022/11/01 08:40:32;;;;;;;;;;;15.50;99.90;;;;;;5057658;28;19975;-63
2022/11/01 08:43:00;;;;;;;;;;;15.50;99.90;;;;;;5057806;28;20070;-62
2022/11/01 08:45:28;;;;;;;;;;;15.50;99.90;;;;;;5056636;28;19994;-64
2022/11/01 08:47:57;;;;;;;;;;;15.60;99.90;;;;;;5057293;28;19990;-63
2022/11/01 08:50:25;;;;;;;;;;;15.70;99.90;;;;;;5059294;28;21129;-63
2022/11/01 08:52:52;;;;;;;;;;;15.70;99.90;;;;;;5059644;28;19963;-64
2022/11/01 08:55:20;;;;;;;;;;;15.70;99.90;;;;;;5059298;28;20436;-63
2022/11/01 08:57:49;;;;;;;;;;;15.80;99.90;;;;;;5055971;28;19971;-63
2022/11/01 09:00:17;;;;;;;;;;;15.80;99.90;;;;;;5057873;28;20365;-63
2022/11/01 09:02:45;;;;;;;;;;;15.80;99.90;;;;;;5060212;28;20306;-63
2022/11/01 09:05:13;;;;;;;;;;;15.90;99.90;;;;;;5059944;28;20842;-63
2022/11/01 09:07:40;;;;;;;;;;;16.00;99.90;;;;;;5055520;28;20529;-63
2022/11/01 09:10:09;;;;;;;;;;;15.90;99.90;;;;;;5060259;28;20838;-63
2022/11/01 09:12:37;;;;;;;;;;;15.90;99.90;;;;;;5060391;28;19978;-63
2022/11/01 09:15:11;;;;;;;;;;;16.10;99.90;;;;;;5060078;28;19975;-63
2022/11/01 09:17:39;;;;;;;;;;;16.10;99.90;;;;;;5051549;28;19971;-63
2022/11/01 09:20:08;;;;;;;;;;;16.30;99.90;;;;;;5058649;28;19974;-63
2022/11/01 09:22:37;;;;;;;;;;;16.30;99.90;;;;;;5060137;28;20000;-63
2022/11/01 09:25:05;;;;;;;;;;;16.40;99.90;;;;;;5059734;28;19971;-63
2022/11/01 09:27:33;;;;;;;;;;;16.60;99.90;;;;;;5053218;28;19970;-64
2022/11/01 09:30:00;;;;;;;;;;;16.90;99.90;;;;;;5054622;28;19977;-64
2022/11/01 09:32:29;;;;;;;;;;;17.00;99.90;;;;;;5059162;28;20011;-63
2022/11/01 09:34:57;;;;;;;;;;;17.30;99.90;;;;;;5058903;28;19977;-64
2022/11/01 09:37:25;;;;;;;;;;;17.70;99.90;;;;;;5055557;28;20639;-64
2022/11/01 09:39:53;;;;;;;;;;;18.10;99.90;;;;;;5059159;28;19992;-63
2022/11/01 09:42:22;;;;;;;;;;;18.30;99.90;;;;;;5056059;28;19973;-63
2022/11/01 09:44:55;;;;;;;;;;;18.50;99.90;;;;;;5057218;28;19998;-63
2022/11/01 09:47:25;;;;;;;;;;;18.60;99.90;;;;;;5054927;28;19970;-63
2022/11/01 09:49:59;;;;;;;;;;;18.70;99.90;;;;;;5058175;28;19990;-63
2022/11/01 09:52:26;;;;;;;;;;;18.50;99.90;;;;;;5057481;28;19978;-63
2022/11/01 09:54:54;;;;;;;;;;;18.40;99.90;;;;;;5058207;28;19970;-62
2022/11/01 09:57:26;;;;;;;;;;;18.30;99.90;;;;;;5056114;28;20443;-63
2022/11/01 09:59:58;;;;;;;;;;;18.20;99.90;;;;;;5059353;28;19970;-63
2022/11/01 10:02:36;;;;;;;;;;;18.20;99.90;;;;;;5058755;28;19970;-63
2022/11/01 10:05:17;;;;;;;;;;;18.00;99.90;;;;;;5057682;28;19981;-63
2022/11/01 10:07:51;;;;;;;;;;;18.00;99.90;;;;;;5050732;28;20046;-64
2022/11/01 10:10:24;;;;;;;;;;;18.20;99.90;;;;;;5058817;28;19967;-64
2022/11/01 10:12:58;;;;;;;;;;;18.20;99.90;;;;;;5056865;28;20448;-63
2022/11/01 10:15:32;;;;;;;;;;;18.30;99.90;;;;;;5055767;28;19974;-64
2022/11/01 10:18:02;;;;;;;;;;;18.50;99.90;;;;;;5053685;28;19986;-64
2022/11/01 10:20:33;;;;;;;;;;;18.50;99.90;;;;;;5060109;28;20593;-64
2022/11/01 10:23:01;;;;;;;;;;;18.60;99.90;;;;;;5059994;28;20073;-64
2022/11/01 10:25:31;;;;;;;;;;;18.90;99.90;;;;;;5057496;28;20419;-64
2022/11/01 10:28:03;;;;;;;;;;;19.20;99.90;;;;;;5052138;28;20530;-64
2022/11/01 10:30:35;;;;;;;;;;;19.40;99.90;;;;;;5057761;28;20057;-64
2022/11/01 10:33:12;;;;;;;;;;;19.80;99.90;;;;;;5059912;28;19977;-64
2022/11/01 10:35:42;;;;;;;;;;;20.00;99.90;;;;;;5060416;28;19970;-64
2022/11/01 10:38:14;;;;;;;;;;;20.10;99.90;;;;;;5051464;28;19970;-64
2022/11/01 10:41:06;;;;;;;;;;;20.30;99.90;;;;;;5055468;28;19975;-65
2022/11/01 10:43:36;;;;;;;;;;;20.60;99.90;;;;;;5057139;28;19971;-65
2022/11/01 10:46:06;;;;;;;;;;;20.70;99.90;;;;;;5057571;28;20362;-66
2022/11/01 10:48:36;;;;;;;;;;;20.70;99.90;;;;;;5047817;28;19975;-64
2022/11/01 10:51:06;;;;;;;;;;;20.80;99.90;;;;;;5058157;28;20037;-64
2022/11/01 10:53:36;;;;;;;;;;;20.90;99.90;;;;;;5057125;28;21125;-65
2022/11/01 10:56:08;;;;;;;;;;;21.00;99.90;;;;;;5058370;28;19975;-64
2022/11/01 10:58:38;;;;;;;;;;;21.10;99.90;;;;;;5049349;28;20053;-64
2022/11/01 11:01:06;;;;;;;;;;;21.40;99.90;;;;;;5049059;28;19971;-64
2022/11/01 11:03:35;;;;;;;;;;;21.40;99.90;;;;;;5056914;28;19977;-64
2022/11/01 11:06:10;;;;;;;;;;;21.10;99.90;;;;;;5057703;28;19976;-64
2022/11/01 11:08:38;;;;;;;;;;;21.10;99.90;;;;;;5057331;28;20484;-64
2022/11/01 11:11:08;;;;;;;;;;;21.40;99.90;;;;;;5058431;28;19974;-64
2022/11/01 11:13:36;;;;;;;;;;;21.60;99.90;;;;;;5060035;28;20730;-64
2022/11/01 11:16:04;;;;;;;;;;;21.80;99.90;;;;;;5053835;28;20062;-64
2022/11/01 11:18:36;;;;;;;;;;;21.90;99.90;;;;;;5048573;28;19970;-64
2022/11/01 11:21:07;;;;;;;;;;;21.80;99.90;;;;;;5054161;28;20588;-65
2022/11/01 11:23:41;;;;;;;;;;;21.70;99.90;;;;;;5055578;28;20020;-64
2022/11/01 11:26:12;;;;;;;;;;;21.70;99.90;;;;;;5057713;28;19971;-64
2022/11/01 11:28:43;;;;;;;;;;;21.70;99.90;;;;;;5055164;28;19971;-64
2022/11/01 11:31:12;;;;;;;;;;;21.70;99.90;;;;;;5063402;28;20023;-64
2022/11/01 11:33:47;;;;;;;;;;;21.60;99.90;;;;;;5063137;28;20066;-64
2022/11/01 11:36:17;;;;;;;;;;;21.30;99.90;;;;;;5060270;28;19973;-64
2022/11/01 11:38:46;;;;;;;;;;;21.00;99.90;;;;;;5054194;28;19971;-64
2022/11/01 11:41:26;;;;;;;;;;;20.90;99.90;;;;;;5062142;28;19977;-65
2022/11/01 11:43:54;;;;;;;;;;;21.20;99.90;;;;;;5067199;28;19968;-66
2022/11/01 11:46:23;;;;;;;;;;;21.60;99.90;;;;;;5070768;28;20486;-64
2022/11/01 11:48:57;;;;;;;;;;;21.60;99.90;;;;;;5116327;22;20062;-63
2022/11/01 11:51:28;;;;;;;;;;;21.90;99.90;;;;;;5061449;28;19977;-63
2022/11/01 11:54:06;;;;;;;;;;;22.00;99.90;;;;;;5054526;28;19971;-63
2022/11/01 11:56:34;;;;;;;;;;;22.20;99.90;;;;;;5054368;28;19987;-63
2022/11/01 11:59:04;;;;;;;;;;;22.30;99.90;;;;;;5036107;28;19998;-63
2022/11/01 12:01:35;;;;;;;;;;;22.50;99.90;;;;;;5034284;28;19976;-63
2022/11/01 12:04:05;;;;;;;;;;;22.50;99.90;;;;;;5034258;28;20067;-63
2022/11/01 12:06:38;;;;;;;;;;;23.00;99.90;;;;;;5034144;28;20350;-63
2022/11/01 12:09:08;;;;;;;;;;;22.80;99.70;;;;;;5034025;28;19968;-63
2022/11/01 12:11:38;;;;;;;;;;;22.40;98.90;;;;;;5034240;28;19989;-63
2022/11/01 12:14:07;;;;;;;;;;;21.90;99.00;;;;;;5039743;28;19967;-63
2022/11/01 12:16:39;;;;;;;;;;;21.50;99.30;;;;;;5041902;28;19967;-63
2022/11/01 12:19:21;;;;;;;;;;;21.60;99.10;;;;;;5033898;28;20054;-62
2022/11/01 12:21:51;;;;;;;;;;;21.40;98.80;;;;;;5033783;28;19974;-63
2022/11/01 12:24:21;;;;;;;;;;;21.60;98.50;;;;;;5033560;28;19967;-63
2022/11/01 12:26:50;;;;;;;;;;;21.80;98.60;;;;;;5033616;28;19974;-63
2022/11/01 12:29:24;;;;;;;;;;;21.90;98.40;;;;;;5033709;28;19967;-63
2022/11/01 12:31:54;;;;;;;;;;;22.10;98.40;;;;;;5033659;28;19977;-63
2022/11/01 12:34:23;;;;;;;;;;;22.20;98.00;;;;;;5033379;28;20015;-63
2022/11/01 12:36:54;;;;;;;;;;;22.20;98.20;;;;;;5033354;28;19971;-63
2022/11/01 12:39:35;;;;;;;;;;;22.40;98.60;;;;;;5032998;28;20465;-63
2022/11/01 12:42:03;;;;;;;;;;;22.50;98.10;;;;;;5033262;28;19972;-63
2022/11/01 12:44:33;;;;;;;;;;;22.60;97.50;;;;;;5041644;28;19975;-63
2022/11/01 12:47:04;;;;;;;;;;;22.20;97.20;;;;;;5038334;28;19967;-62
2022/11/01 12:49:33;;;;;;;;;;;22.10;97.50;;;;;;5033153;28;19980;-63
2022/11/01 12:52:06;;;;;;;;;;;22.10;97.90;;;;;;5033475;28;19989;-63
2022/11/01 12:54:36;;;;;;;;;;;21.90;96.80;;;;;;5033008;28;20020;-63
2022/11/01 12:57:08;;;;;;;;;;;21.80;96.80;;;;;;5033170;28;19967;-63
2022/11/01 12:59:37;;;;;;;;;;;21.80;97.40;;;;;;5032919;28;19989;-62
2022/11/01 13:02:15;;;;;;;;;;;21.60;97.50;;;;;;5032986;28;19982;-62
2022/11/01 13:04:48;;;;;;;;;;;21.20;98.20;;;;;;5033085;28;20015;-62
2022/11/01 13:07:21;;;;;;;;;;;21.00;98.90;;;;;;5032928;28;19968;-63
2022/11/01 13:09:55;;;;;;;;;;;20.90;97.90;;;;;;5032692;28;20355;-63
2022/11/01 13:12:29;;;;;;;;;;;20.60;98.30;;;;;;5032936;28;19971;-62
2022/11/01 13:15:01;;;;;;;;;;;19.90;98.60;;;;;;5040608;28;20507;-62
2022/11/01 13:17:34;;;;;;;;;;;19.40;99.90;;;;;;5051464;28;20473;-64
2022/11/01 13:20:07;;;;;;;;;;;19.00;99.90;;;;;;5052437;28;19981;-64
2022/11/01 13:22:39;;;;;;;;;;;18.80;99.90;;;;;;5052688;28;19973;-64
2022/11/01 13:25:12;;;;;;;;;;;18.50;99.90;;;;;;5052381;28;19967;-64
2022/11/01 13:27:43;;;;;;;;;;;18.20;99.90;;;;;;5052468;28;20476;-64
2022/11/01 13:30:12;;;;;;;;;;;18.00;99.90;;;;;;5052226;28;19975;-64
2022/11/01 13:32:45;;;;;;;;;;;17.80;99.90;;;;;;5052523;28;19970;-64
2022/11/01 13:35:30;;;;;;;;;;;17.70;99.90;;;;;;5052268;28;19974;-64
2022/11/01 13:38:03;;;;;;;;;;;17.50;99.90;;;;;;5052389;28;19971;-64
2022/11/01 13:40:33;;;;;;;;;;;17.40;99.90;;;;;;5052301;28;19967;-64
2022/11/01 13:43:03;;;;;;;;;;;17.40;99.90;;;;;;5052201;28;19967;-63
2022/11/01 13:45:57;;;;;;;;;;;17.40;99.90;;;;;;5040942;28;20464;-64
2022/11/01 13:48:29;;;;;;;;;;;17.30;99.90;;;;;;5013589;28;20428;-64
2022/11/01 13:51:05;;;;;;;;;;;17.30;99.90;;;;;;5012810;28;20465;-64
2022/11/01 13:53:37;;;;;;;;;;;17.30;99.90;;;;;;5032155;28;20353;-64
2022/11/01 13:56:08;;;;;;;;;;;17.10;99.90;;;;;;5031896;28;20508;-65
2022/11/01 13:58:36;;;;;;;;;;;17.10;99.90;;;;;;5032186;28;20352;-64
2022/11/01 14:01:19;;;;;;;;;;;17.10;99.90;;;;;;5031458;28;19967;-65
2022/11/01 14:03:47;;;;;;;;;;;17.00;99.90;;;;;;5035017;28;19974;-64
2022/11/01 14:06:28;;;;;;;;;;;16.90;99.90;;;;;;5028771;28;19971;-64
2022/11/01 14:09:30;;;;;;;;;;;16.90;99.90;;;;;;5026128;28;19976;-64
2022/11/01 14:12:09;;;;;;;;;;;16.90;99.90;;;;;;5023687;28;19979;-63
2022/11/01 14:14:52;;;;;;;;;;;16.80;99.90;;;;;;5029928;28;19972;-64
2022/11/01 14:17:51;;;;;;;;;;;16.80;99.90;;;;;;5023216;28;19976;-65
2022/11/01 14:20:39;;;;;;;;;;;16.70;99.90;;;;;;5029903;28;20457;-65
2022/11/01 14:23:26;;;;;;;;;;;16.60;99.90;;;;;;5027078;28;19982;-64
2022/11/01 14:26:09;;;;;;;;;;;16.60;99.90;;;;;;5027921;28;20057;-63
2022/11/01 14:28:43;;;;;;;;;;;16.60;99.90;;;;;;5021981;28;19975;-62
2022/11/01 14:31:10;;;;;;;;;;;16.60;99.90;;;;;;5023313;28;20006;-62
2022/11/01 14:33:41;;;;;;;;;;;16.50;99.90;;;;;;5032448;28;19967;-62
2022/11/01 14:36:11;;;;;;;;;;;16.40;99.90;;;;;;5024968;28;19971;-62
2022/11/01 14:38:42;;;;;;;;;;;16.40;99.90;;;;;;5013761;28;20030;-62
2022/11/01 14:41:13;;;;;;;;;;;16.30;99.90;;;;;;5026153;28;19975;-62
2022/11/01 14:43:42;;;;;;;;;;;16.30;99.90;;;;;;5030310;28;20051;-61